Time;durP1;ratioP1;P1;durP2;ratioP2;P2;SDS_P1;SDS_P2;PMS_P1;PMS_P2;Temp;Humidity;BMP_temperature;BMP_pressure;BME280_temperature;BME280_humidity;BME280_pressure;Samples;Min_cycle;Max_cycle;Signal;HPM_P1;HPM_P2
2023/05/26 00:01:20;;;;;;;0.00;0.00;;;9.80;74.40;;;;;;5028155;28;20045;-67
2023/05/26 00:03:48;;;;;;;1.27;1.08;;;9.70;74.60;;;;;;5029095;28;20049;-67
2023/05/26 00:06:15;;;;;;;0.00;0.00;;;9.70;74.80;;;;;;5028607;28;20244;-66
2023/05/26 00:08:40;;;;;;;0.00;0.00;;;9.80;74.70;;;;;;5011348;28;20041;-67
2023/05/26 00:11:06;;;;;;;0.03;0.03;;;9.80;74.70;;;;;;5027615;28;20501;-66
2023/05/26 00:13:32;;;;;;;0.00;0.00;;;9.80;74.80;;;;;;5029020;28;20460;-66
2023/05/26 00:15:58;;;;;;;0.00;0.00;;;9.80;74.80;;;;;;5028807;28;20093;-67
2023/05/26 00:18:26;;;;;;;0.03;0.03;;;9.80;74.70;;;;;;5028323;28;20034;-66
2023/05/26 00:20:53;;;;;;;0.00;0.00;;;9.70;74.60;;;;;;5027351;28;20180;-66
2023/05/26 00:23:18;;;;;;;0.00;0.00;;;9.70;74.70;;;;;;5028298;28;20037;-67
2023/05/26 00:25:44;;;;;;;0.00;0.00;;;9.70;74.70;;;;;;5029097;28;20041;-66
2023/05/26 00:28:09;;;;;;;0.00;0.00;;;9.70;74.80;;;;;;5028892;28;20037;-67
2023/05/26 00:30:35;;;;;;;0.00;0.00;;;9.60;74.70;;;;;;5028331;28;20041;-66
2023/05/26 00:33:00;;;;;;;0.28;0.28;;;9.70;74.80;;;;;;5028706;28;20479;-67
2023/05/26 00:35:26;;;;;;;0.00;0.00;;;9.70;74.80;;;;;;5028800;28;20586;-67
2023/05/26 00:37:52;;;;;;;0.00;0.00;;;9.60;74.90;;;;;;5028412;28;20037;-67
2023/05/26 00:40:18;;;;;;;0.00;0.00;;;9.60;75.00;;;;;;5028041;28;20056;-67
2023/05/26 00:42:43;;;;;;;0.00;0.00;;;9.60;75.10;;;;;;5028947;28;20111;-67
2023/05/26 00:45:09;;;;;;;0.00;0.00;;;9.60;75.20;;;;;;5028320;28;20437;-67
2023/05/26 00:47:35;;;;;;;0.00;0.00;;;9.60;75.20;;;;;;5027463;28;20037;-66
2023/05/26 00:50:01;;;;;;;0.00;0.00;;;9.60;75.20;;;;;;5028544;28;20090;-67
2023/05/26 00:52:29;;;;;;;0.00;0.00;;;9.60;75.10;;;;;;5028300;28;20112;-67
2023/05/26 00:54:55;;;;;;;0.00;0.00;;;9.60;75.10;;;;;;5026760;28;20058;-67
2023/05/26 00:57:21;;;;;;;0.30;0.30;;;9.60;75.40;;;;;;5027521;28;20091;-67
2023/05/26 00:59:47;;;;;;;0.00;0.00;;;9.60;75.40;;;;;;5028444;28;20457;-67
2023/05/26 01:02:14;;;;;;;0.25;0.25;;;9.60;75.60;;;;;;5028470;28;20071;-68
2023/05/26 01:04:41;;;;;;;0.52;0.43;;;9.50;76.20;;;;;;5028009;28;20422;-67
2023/05/26 01:07:07;;;;;;;0.38;0.35;;;9.50;76.00;;;;;;5028545;28;20068;-67
2023/05/26 01:09:33;;;;;;;0.00;0.00;;;9.50;76.10;;;;;;5028362;28;20500;-68
2023/05/26 01:12:08;;;;;;;0.00;0.00;;;9.50;76.10;;;;;;5028729;28;20084;-67
2023/05/26 01:14:41;;;;;;;0.00;0.00;;;9.50;76.10;;;;;;5029142;28;20048;-67
2023/05/26 01:17:17;;;;;;;0.65;0.65;;;9.40;76.20;;;;;;5012719;28;20070;-67
2023/05/26 01:20:07;;;;;;;0.00;0.00;;;9.40;76.00;;;;;;5019740;28;20111;-68
2023/05/26 01:22:51;;;;;;;0.00;0.00;;;9.40;76.40;;;;;;5014030;28;20153;-67
2023/05/26 01:25:44;;;;;;;0.65;0.65;;;9.30;76.40;;;;;;5032427;28;20087;-67
2023/05/26 01:28:20;;;;;;;0.00;0.00;;;9.30;76.20;;;;;;5014358;28;20056;-67
2023/05/26 01:30:48;;;;;;;0.00;0.00;;;9.40;76.30;;;;;;5031767;28;20050;-67
2023/05/26 01:33:14;;;;;;;0.00;0.00;;;9.30;76.30;;;;;;5031599;28;20119;-67
2023/05/26 01:35:39;;;;;;;3.10;1.85;;;9.30;76.40;;;;;;5031714;28;20470;-67
2023/05/26 01:38:07;;;;;;;0.10;0.10;;;9.40;76.40;;;;;;5032163;28;20045;-67
2023/05/26 01:40:33;;;;;;;0.00;0.00;;;9.30;76.40;;;;;;5031757;28;20095;-67
2023/05/26 01:43:08;;;;;;;0.57;0.57;;;9.30;76.50;;;;;;5030296;28;20461;-67
2023/05/26 01:45:59;;;;;;;0.00;0.00;;;9.30;76.50;;;;;;5031791;28;20084;-67
2023/05/26 01:48:26;;;;;;;0.03;0.03;;;9.30;76.50;;;;;;5030515;28;20498;-68
2023/05/26 01:50:55;;;;;;;0.00;0.00;;;9.30;76.40;;;;;;5030450;28;20053;-67
2023/05/26 01:53:24;;;;;;;1.08;0.82;;;9.30;76.50;;;;;;5031562;28;20049;-68
2023/05/26 01:55:54;;;;;;;0.00;0.00;;;9.30;76.60;;;;;;5030817;28;20045;-68
2023/05/26 01:58:21;;;;;;;0.00;0.00;;;9.30;76.90;;;;;;5013843;28;20045;-68
2023/05/26 02:00:47;;;;;;;0.00;0.00;;;9.20;77.00;;;;;;5030352;28;20532;-68
2023/05/26 02:03:13;;;;;;;0.63;0.63;;;9.20;76.70;;;;;;5029489;28;20084;-68
2023/05/26 02:05:39;;;;;;;0.00;0.00;;;9.20;76.60;;;;;;5031214;28;20069;-68
2023/05/26 02:08:05;;;;;;;0.20;0.20;;;9.20;76.80;;;;;;5031354;28;20056;-67
2023/05/26 02:10:30;;;;;;;0.00;0.00;;;9.20;76.90;;;;;;5030986;28;20044;-67
2023/05/26 02:12:56;;;;;;;0.00;0.00;;;9.20;76.70;;;;;;5031195;28;20131;-68
2023/05/26 02:15:21;;;;;;;0.00;0.00;;;9.20;76.80;;;;;;5030814;28;20052;-67
2023/05/26 02:17:47;;;;;;;0.03;0.03;;;9.20;76.80;;;;;;5013403;28;20049;-67
2023/05/26 02:20:15;;;;;;;0.00;0.00;;;9.20;76.60;;;;;;5030923;28;20068;-67
2023/05/26 02:22:40;;;;;;;0.10;0.10;;;9.20;76.70;;;;;;5031277;28;20057;-67
2023/05/26 02:25:06;;;;;;;0.00;0.00;;;9.20;76.60;;;;;;5030688;28;20419;-67
2023/05/26 02:27:32;;;;;;;0.10;0.10;;;9.20;76.70;;;;;;5030144;28;20037;-67
2023/05/26 02:29:58;;;;;;;0.00;0.00;;;9.20;76.70;;;;;;5031258;28;20049;-67
2023/05/26 02:32:23;;;;;;;0.52;0.52;;;9.10;76.70;;;;;;5029495;28;20054;-67
2023/05/26 02:34:49;;;;;;;0.10;0.10;;;9.20;76.80;;;;;;5030464;28;20398;-68
2023/05/26 02:37:17;;;;;;;0.00;0.00;;;9.10;76.70;;;;;;5030664;28;20057;-67
2023/05/26 02:39:43;;;;;;;0.10;0.10;;;9.10;76.90;;;;;;5031029;28;20143;-68
2023/05/26 02:42:08;;;;;;;1.55;1.00;;;9.10;76.80;;;;;;5030266;28;20505;-67
2023/05/26 02:44:34;;;;;;;0.00;0.00;;;9.10;77.00;;;;;;5030505;28;20589;-67
2023/05/26 02:47:00;;;;;;;0.00;0.00;;;9.10;76.80;;;;;;5030658;28;20449;-67
2023/05/26 02:49:25;;;;;;;0.00;0.00;;;9.10;76.90;;;;;;5030476;28;20092;-67
2023/05/26 02:51:51;;;;;;;0.00;0.00;;;9.10;76.90;;;;;;5030309;28;20045;-67
2023/05/26 02:54:16;;;;;;;0.00;0.00;;;9.10;76.80;;;;;;5030319;28;20107;-67
2023/05/26 02:56:42;;;;;;;0.00;0.00;;;9.10;76.80;;;;;;5030460;28;20044;-67
2023/05/26 02:59:07;;;;;;;0.00;0.00;;;9.10;76.80;;;;;;5030618;28;20052;-67
2023/05/26 03:01:33;;;;;;;0.03;0.03;;;9.10;76.90;;;;;;5029192;28;20327;-67
2023/05/26 03:03:58;;;;;;;0.00;0.00;;;9.10;76.90;;;;;;5030427;28;20057;-67
2023/05/26 03:06:24;;;;;;;0.57;0.57;;;9.10;76.90;;;;;;5030047;28;20046;-67
2023/05/26 03:08:50;;;;;;;0.00;0.00;;;9.00;76.90;;;;;;5029870;28;20056;-67
2023/05/26 03:11:15;;;;;;;0.00;0.00;;;9.00;76.90;;;;;;5029816;28;20041;-67
2023/05/26 03:13:41;;;;;;;0.90;0.90;;;9.00;77.00;;;;;;5028424;28;20053;-67
2023/05/26 03:16:07;;;;;;;0.00;0.00;;;9.00;76.90;;;;;;5029916;28;20129;-67
2023/05/26 03:18:32;;;;;;;1.23;0.65;;;9.00;77.00;;;;;;5029612;28;20053;-67
2023/05/26 03:20:58;;;;;;;0.00;0.00;;;9.00;77.00;;;;;;5029984;28;20045;-67
2023/05/26 03:23:24;;;;;;;0.00;0.00;;;8.90;77.00;;;;;;5029905;28;20049;-67
2023/05/26 03:25:50;;;;;;;0.00;0.00;;;8.90;77.00;;;;;;5027904;28;20046;-68
2023/05/26 03:28:16;;;;;;;0.00;0.00;;;9.00;77.20;;;;;;5029249;28;20091;-67
2023/05/26 03:30:41;;;;;;;1.08;0.98;;;9.00;77.10;;;;;;5012113;28;20053;-67
2023/05/26 03:33:07;;;;;;;0.00;0.00;;;8.90;77.10;;;;;;5029000;28;20049;-67
2023/05/26 03:35:33;;;;;;;0.00;0.00;;;8.90;77.20;;;;;;5029060;28;20413;-67
2023/05/26 03:37:58;;;;;;;0.00;0.00;;;9.00;77.30;;;;;;5027718;28;20045;-67
2023/05/26 03:40:24;;;;;;;0.00;0.00;;;9.00;77.40;;;;;;5030170;28;20044;-68
2023/05/26 03:42:50;;;;;;;0.00;0.00;;;9.00;77.30;;;;;;5029744;28;20103;-67
2023/05/26 03:45:15;;;;;;;0.00;0.00;;;9.00;77.30;;;;;;5029000;28;20038;-67
2023/05/26 03:47:42;;;;;;;0.00;0.00;;;8.90;77.30;;;;;;5028198;28;20050;-67
2023/05/26 03:50:08;;;;;;;0.00;0.00;;;9.00;77.40;;;;;;5029167;28;20046;-67
2023/05/26 03:52:34;;;;;;;0.00;0.00;;;8.90;77.40;;;;;;5029366;28;20052;-67
2023/05/26 03:54:59;;;;;;;0.00;0.00;;;8.90;77.40;;;;;;5029302;28;20798;-67
2023/05/26 03:57:25;;;;;;;0.10;0.10;;;8.90;77.50;;;;;;5029048;28;20073;-66
2023/05/26 03:59:51;;;;;;;0.00;0.00;;;8.90;77.60;;;;;;5029000;28;20051;-67
2023/05/26 04:02:16;;;;;;;0.00;0.00;;;9.00;77.60;;;;;;5028647;28;20406;-67
2023/05/26 04:04:42;;;;;;;0.00;0.00;;;8.90;77.60;;;;;;5029391;28;20421;-67
2023/05/26 04:07:08;;;;;;;0.00;0.00;;;8.90;77.80;;;;;;5029053;28;20141;-67
2023/05/26 04:09:34;;;;;;;0.00;0.00;;;9.00;77.90;;;;;;5027582;28;20094;-67
2023/05/26 04:12:00;;;;;;;0.00;0.00;;;9.00;77.80;;;;;;5027420;28;20550;-67
2023/05/26 04:14:26;;;;;;;1.25;1.23;;;9.00;77.90;;;;;;5028430;28;20045;-67
2023/05/26 04:16:52;;;;;;;0.00;0.00;;;9.00;77.90;;;;;;5028729;28;20505;-67
2023/05/26 04:19:18;;;;;;;0.05;0.05;;;9.10;78.00;;;;;;5028931;28;20509;-67
2023/05/26 04:21:44;;;;;;;0.00;0.00;;;9.00;78.30;;;;;;5028724;28;20045;-67
2023/05/26 04:24:09;;;;;;;0.00;0.00;;;9.00;78.20;;;;;;5025991;28;20049;-67
2023/05/26 04:26:35;;;;;;;0.00;0.00;;;9.10;78.20;;;;;;5027584;28;20048;-67
2023/05/26 04:29:01;;;;;;;0.00;0.00;;;9.10;78.10;;;;;;5028614;28;20045;-66
2023/05/26 04:31:29;;;;;;;0.00;0.00;;;9.10;78.30;;;;;;5028982;28;20056;-67
2023/05/26 04:33:56;;;;;;;0.00;0.00;;;9.10;78.50;;;;;;5027057;28;20053;-67
2023/05/26 04:36:23;;;;;;;0.43;0.43;;;9.10;78.20;;;;;;5028419;28;20499;-67
2023/05/26 04:38:48;;;;;;;0.00;0.00;;;9.10;78.20;;;;;;5028264;28;20041;-67
2023/05/26 04:41:15;;;;;;;0.00;0.00;;;9.10;78.20;;;;;;5028237;28;20410;-67
2023/05/26 04:43:43;;;;;;;0.00;0.00;;;9.20;78.30;;;;;;5023621;28;20180;-67
2023/05/26 04:46:10;;;;;;;0.00;0.00;;;9.20;78.30;;;;;;5028215;28;20088;-66
2023/05/26 04:48:37;;;;;;;0.10;0.10;;;9.20;78.20;;;;;;5020321;28;20050;-66
2023/05/26 04:51:04;;;;;;;0.00;0.00;;;9.30;78.30;;;;;;5021406;28;20041;-66
2023/05/26 04:53:29;;;;;;;0.20;0.20;;;9.30;78.20;;;;;;5027331;28;20046;-69
2023/05/26 04:55:58;;;;;;;0.00;0.00;;;9.40;78.30;;;;;;5027880;28;20052;-69
2023/05/26 04:58:23;;;;;;;0.00;0.00;;;9.40;78.30;;;;;;5021418;28;20057;-68
2023/05/26 05:00:50;;;;;;;0.00;0.00;;;9.50;78.40;;;;;;4998995;28;20065;-69
2023/05/26 05:03:16;;;;;;;0.00;0.00;;;9.50;78.50;;;;;;5011664;28;20053;-69
2023/05/26 05:05:41;;;;;;;0.00;0.00;;;9.60;78.50;;;;;;5031593;28;20049;-68
2023/05/26 05:08:07;;;;;;;0.20;0.20;;;9.60;78.30;;;;;;5032770;28;20041;-68
2023/05/26 05:10:32;;;;;;;0.70;0.45;;;9.70;78.00;;;;;;5016368;28;20046;-68
2023/05/26 05:12:59;;;;;;;0.20;0.20;;;9.80;78.40;;;;;;5030928;28;20073;-67
2023/05/26 05:15:25;;;;;;;0.00;0.00;;;9.80;78.30;;;;;;5030658;28;20057;-68
2023/05/26 05:17:51;;;;;;;0.00;0.00;;;9.90;78.20;;;;;;5030434;28;20515;-67
2023/05/26 05:20:16;;;;;;;0.00;0.00;;;10.00;78.30;;;;;;5030340;28;20044;-68
2023/05/26 05:22:43;;;;;;;0.00;0.00;;;10.00;78.40;;;;;;5025860;28;20073;-67
2023/05/26 05:25:08;;;;;;;0.03;0.03;;;10.00;78.60;;;;;;5028823;28;20053;-67
2023/05/26 05:27:34;;;;;;;0.00;0.00;;;10.10;78.50;;;;;;5029080;28;20045;-67
2023/05/26 05:30:00;;;;;;;0.80;0.80;;;10.20;78.50;;;;;;5030170;28;20053;-65
2023/05/26 05:32:25;;;;;;;0.13;0.13;;;10.30;78.40;;;;;;5031041;28;20037;-64
2023/05/26 05:34:51;;;;;;;0.93;0.93;;;10.30;78.60;;;;;;5031638;28;20513;-66
2023/05/26 05:37:17;;;;;;;0.20;0.20;;;10.40;78.50;;;;;;5026806;28;20040;-66
2023/05/26 05:39:42;;;;;;;0.00;0.00;;;10.60;78.20;;;;;;5031544;28;20045;-66
2023/05/26 05:42:08;;;;;;;0.00;0.00;;;10.60;78.00;;;;;;5028738;28;20049;-66
2023/05/26 05:44:33;;;;;;;0.00;0.00;;;10.60;78.00;;;;;;5022647;28;20053;-66
2023/05/26 05:46:59;;;;;;;0.00;0.00;;;10.60;78.10;;;;;;5018123;28;20076;-67
2023/05/26 05:49:24;;;;;;;0.00;0.00;;;10.70;78.20;;;;;;5023394;28;20049;-66
2023/05/26 05:51:50;;;;;;;1.00;0.77;;;10.80;78.00;;;;;;5029281;28;20048;-66
2023/05/26 05:54:16;;;;;;;1.27;0.22;;;10.90;77.80;;;;;;5013260;28;20052;-66
2023/05/26 05:56:41;;;;;;;0.00;0.00;;;10.90;77.70;;;;;;5023328;28;20042;-66
2023/05/26 05:59:07;;;;;;;0.00;0.00;;;11.00;77.50;;;;;;5030272;28;20096;-65
2023/05/26 06:01:32;;;;;;;2.38;1.58;;;11.10;77.30;;;;;;5020072;28;20052;-67
2023/05/26 06:03:58;;;;;;;0.00;0.00;;;11.10;77.10;;;;;;5029681;28;20049;-67
2023/05/26 06:06:24;;;;;;;0.30;0.30;;;11.20;76.70;;;;;;5019048;28;20052;-65
2023/05/26 06:08:49;;;;;;;0.20;0.20;;;11.30;76.20;;;;;;5031846;28;20043;-67
2023/05/26 06:11:15;;;;;;;0.00;0.00;;;11.30;76.40;;;;;;5028160;28;20051;-63
2023/05/26 06:13:40;;;;;;;0.60;0.60;;;11.40;75.60;;;;;;5028237;28;20095;-64
2023/05/26 06:16:06;;;;;;;0.00;0.00;;;11.50;75.40;;;;;;5031461;28;20048;-64
2023/05/26 06:18:32;;;;;;;0.10;0.10;;;11.60;74.80;;;;;;5031322;28;20544;-64
2023/05/26 06:20:57;;;;;;;1.25;1.10;;;11.60;74.30;;;;;;5030366;28;20053;-64
2023/05/26 06:23:23;;;;;;;0.50;0.50;;;11.60;73.80;;;;;;5031100;28;20132;-64
2023/05/26 06:25:48;;;;;;;2.55;2.38;;;11.70;73.50;;;;;;5031386;28;20122;-64
2023/05/26 06:28:14;;;;;;;0.17;0.17;;;11.80;72.90;;;;;;5031332;28;20413;-64
2023/05/26 06:30:40;;;;;;;0.35;0.35;;;11.70;73.20;;;;;;5031309;28;20417;-66
2023/05/26 06:33:05;;;;;;;0.30;0.30;;;11.80;73.30;;;;;;5031053;28;20092;-64
2023/05/26 06:35:31;;;;;;;0.30;0.30;;;11.80;72.90;;;;;;5030619;28;20085;-64
2023/05/26 06:37:56;;;;;;;0.00;0.00;;;11.90;72.90;;;;;;5028001;28;20045;-65
2023/05/26 06:40:22;;;;;;;0.00;0.00;;;11.90;73.20;;;;;;5020290;28;20053;-64
2023/05/26 06:42:48;;;;;;;0.00;0.00;;;12.00;72.40;;;;;;5030133;28;20099;-65
2023/05/26 06:45:13;;;;;;;0.00;0.00;;;12.10;71.70;;;;;;5030642;28;20072;-65
2023/05/26 06:47:39;;;;;;;0.35;0.35;;;12.00;71.10;;;;;;5030076;28;20050;-65
2023/05/26 06:50:06;;;;;;;0.03;0.03;;;12.10;70.70;;;;;;5030498;28;20045;-65
2023/05/26 06:52:31;;;;;;;1.45;1.25;;;12.10;69.60;;;;;;5029061;28;20037;-65
2023/05/26 06:54:57;;;;;;;0.57;0.57;;;12.10;69.30;;;;;;5030056;28;20561;-66
2023/05/26 06:57:22;;;;;;;0.10;0.10;;;12.10;69.40;;;;;;5030327;28;20045;-65
2023/05/26 06:59:48;;;;;;;0.20;0.20;;;12.20;69.00;;;;;;5029701;28;20076;-65
2023/05/26 07:02:13;;;;;;;1.48;1.38;;;12.20;68.60;;;;;;5029623;28;20086;-65
2023/05/26 07:04:39;;;;;;;0.00;0.00;;;12.30;68.50;;;;;;5028385;28;20048;-65
2023/05/26 07:07:05;;;;;;;0.73;0.73;;;12.30;69.00;;;;;;5029580;28;20041;-65
2023/05/26 07:09:30;;;;;;;1.45;1.35;;;12.40;68.70;;;;;;5029794;28;20045;-66
2023/05/26 07:11:56;;;;;;;0.00;0.00;;;12.30;68.40;;;;;;5028829;28;20573;-65
2023/05/26 07:14:21;;;;;;;0.10;0.10;;;12.50;67.10;;;;;;5025786;28;20042;-65
2023/05/26 07:16:47;;;;;;;0.88;0.88;;;12.50;67.20;;;;;;5018717;28;20045;-65
2023/05/26 07:19:13;;;;;;;1.20;1.10;;;12.60;66.50;;;;;;5028988;28;20124;-65
2023/05/26 07:21:38;;;;;;;0.20;0.20;;;12.60;66.10;;;;;;5029683;28;20144;-67
2023/05/26 07:24:04;;;;;;;0.80;0.80;;;12.60;65.10;;;;;;5028272;28;20060;-66
2023/05/26 07:26:29;;;;;;;0.57;0.57;;;12.60;65.10;;;;;;5029455;28;20486;-65
2023/05/26 07:28:55;;;;;;;0.00;0.00;;;12.60;65.60;;;;;;5029243;28;20042;-66
2023/05/26 07:31:21;;;;;;;1.55;1.17;;;12.70;65.30;;;;;;5016668;28;20050;-65
2023/05/26 07:33:47;;;;;;;0.32;0.32;;;12.80;64.90;;;;;;5027939;28;20041;-66
2023/05/26 07:36:13;;;;;;;1.25;1.17;;;12.80;64.30;;;;;;5029127;28;20525;-66
2023/05/26 07:38:39;;;;;;;4.78;2.30;;;12.80;64.60;;;;;;5029741;28;20041;-65
2023/05/26 07:41:04;;;;;;;0.45;0.45;;;12.80;64.70;;;;;;5026986;28;20045;-65
2023/05/26 07:43:30;;;;;;;1.35;0.75;;;12.90;64.40;;;;;;5029651;28;20046;-65
2023/05/26 07:45:55;;;;;;;0.13;0.13;;;12.80;64.50;;;;;;5011316;28;20075;-65
2023/05/26 07:48:21;;;;;;;0.05;0.05;;;12.90;64.80;;;;;;5010883;28;20140;-65
2023/05/26 07:50:47;;;;;;;0.73;0.73;;;13.00;64.90;;;;;;5025055;28;20096;-66
2023/05/26 07:53:12;;;;;;;0.22;0.13;;;13.10;64.50;;;;;;5029584;28;20056;-65
2023/05/26 07:55:38;;;;;;;0.82;0.73;;;13.10;63.40;;;;;;5029074;28;20045;-65
2023/05/26 07:58:03;;;;;;;0.00;0.00;;;13.10;63.10;;;;;;5006578;28;20611;-65
2023/05/26 08:00:29;;;;;;;0.00;0.00;;;13.10;63.20;;;;;;5015319;28;20403;-66
2023/05/26 08:02:55;;;;;;;0.00;0.00;;;13.20;63.10;;;;;;5007081;28;20042;-65
2023/05/26 08:05:21;;;;;;;0.28;0.28;;;13.20;62.40;;;;;;5029332;28;20048;-65
2023/05/26 08:07:46;;;;;;;0.00;0.00;;;13.20;62.50;;;;;;5024224;28;20041;-64
2023/05/26 08:10:12;;;;;;;0.28;0.28;;;13.30;61.80;;;;;;5009935;28;20492;-65
2023/05/26 08:12:37;;;;;;;0.15;0.15;;;13.30;62.30;;;;;;5012388;28;20042;-66
2023/05/26 08:15:04;;;;;;;0.00;0.00;;;13.40;61.80;;;;;;5020497;28;20487;-65
2023/05/26 08:17:30;;;;;;;0.00;0.00;;;13.40;61.90;;;;;;5009699;28;20068;-65
2023/05/26 08:19:56;;;;;;;0.03;0.03;;;13.40;61.80;;;;;;5028459;28;20585;-65
2023/05/26 08:22:21;;;;;;;0.05;0.05;;;13.50;61.00;;;;;;5028687;28;20509;-65
2023/05/26 08:24:47;;;;;;;0.00;0.00;;;13.40;61.40;;;;;;5010243;28;20050;-65
2023/05/26 08:27:12;;;;;;;0.73;0.73;;;13.60;60.90;;;;;;5005347;28;20049;-65
2023/05/26 08:29:38;;;;;;;0.00;0.00;;;13.60;60.70;;;;;;5027890;28;20036;-65
2023/05/26 08:32:04;;;;;;;0.00;0.00;;;13.60;60.50;;;;;;5029589;28;20040;-65
2023/05/26 08:34:29;;;;;;;0.05;0.05;;;13.60;60.70;;;;;;5027825;28;20052;-65
2023/05/26 08:36:55;;;;;;;0.00;0.00;;;13.60;60.30;;;;;;5028761;28;20045;-65
2023/05/26 08:39:20;;;;;;;0.00;0.00;;;13.60;60.30;;;;;;5028792;28;20128;-65
2023/05/26 08:41:55;;;;;;;2.90;2.10;;;13.60;61.10;;;;;;5029581;28;20077;-65
2023/05/26 08:44:21;;;;;;;1.00;1.00;;;13.70;60.70;;;;;;5028185;28;20548;-65
2023/05/26 08:46:55;;;;;;;5.68;2.42;;;13.70;60.10;;;;;;5029163;28;20045;-65
2023/05/26 08:49:22;;;;;;;1.00;0.90;;;13.70;60.00;;;;;;5029273;28;20466;-65
2023/05/26 08:51:58;;;;;;;0.00;0.00;;;13.70;60.40;;;;;;5028002;28;20061;-64
2023/05/26 08:54:24;;;;;;;0.10;0.10;;;13.90;60.50;;;;;;5028519;28;20387;-65
2023/05/26 08:56:50;;;;;;;0.20;0.20;;;13.80;60.60;;;;;;5028406;28;20048;-65
2023/05/26 08:59:18;;;;;;;0.00;0.00;;;13.90;60.70;;;;;;5022010;28;20627;-65
2023/05/26 09:01:43;;;;;;;0.17;0.17;;;14.00;60.10;;;;;;5019994;28;20133;-65
2023/05/26 09:04:09;;;;;;;1.05;0.88;;;14.00;60.20;;;;;;5014543;28;20037;-65
2023/05/26 09:06:36;;;;;;;0.50;0.50;;;14.00;60.30;;;;;;5024130;28;20042;-65
2023/05/26 09:09:04;;;;;;;0.10;0.10;;;14.10;59.90;;;;;;5014781;28;20333;-65
2023/05/26 09:11:30;;;;;;;0.00;0.00;;;14.10;59.80;;;;;;5027007;28;20482;-65
2023/05/26 09:13:56;;;;;;;0.15;0.15;;;14.10;59.70;;;;;;5010310;28;20057;-65
2023/05/26 09:16:26;;;;;;;0.30;0.30;;;14.10;59.50;;;;;;5020750;28;20042;-65
2023/05/26 09:18:57;;;;;;;0.05;0.05;;;14.10;59.50;;;;;;5023386;28;20053;-65
2023/05/26 09:21:25;;;;;;;0.00;0.00;;;14.10;59.90;;;;;;5025652;28;20486;-65
2023/05/26 09:23:55;;;;;;;0.00;0.00;;;14.10;59.80;;;;;;5008568;28;20133;-65
2023/05/26 09:26:32;;;;;;;1.00;1.00;;;14.10;60.20;;;;;;5008669;28;20073;-65
2023/05/26 09:28:59;;;;;;;3.58;3.15;;;14.30;59.10;;;;;;5008428;28;20160;-65
2023/05/26 09:31:25;;;;;;;0.00;0.00;;;14.30;58.80;;;;;;5016876;28;20041;-65
2023/05/26 09:33:52;;;;;;;0.30;0.30;;;14.30;58.60;;;;;;5027546;28;20125;-65
2023/05/26 09:36:23;;;;;;;0.20;0.20;;;14.30;59.00;;;;;;5029279;28;20042;-65
2023/05/26 09:38:51;;;;;;;1.35;1.25;;;14.40;57.80;;;;;;5031842;28;20057;-65
2023/05/26 09:41:20;;;;;;;0.00;0.00;;;14.40;58.10;;;;;;5031847;28;20045;-64
2023/05/26 09:43:50;;;;;;;0.00;0.00;;;14.40;58.40;;;;;;5031696;28;20533;-65
2023/05/26 09:46:22;;;;;;;0.30;0.30;;;14.50;58.80;;;;;;5031513;28;20045;-64
2023/05/26 09:48:51;;;;;;;0.45;0.45;;;14.50;58.90;;;;;;5030153;28;20049;-65
2023/05/26 09:51:19;;;;;;;0.00;0.00;;;14.60;59.00;;;;;;5031405;28;20120;-65
2023/05/26 09:53:45;;;;;;;4.95;1.38;;;14.60;58.90;;;;;;5031544;28;20077;-65
2023/05/26 09:56:11;;;;;;;1.00;1.00;;;14.60;58.90;;;;;;5030472;28;20041;-65
2023/05/26 09:58:39;;;;;;;0.25;0.25;;;14.70;59.20;;;;;;5030356;28;20055;-65
2023/05/26 10:01:07;;;;;;;1.33;1.23;;;14.80;59.50;;;;;;5012942;28;20133;-65
2023/05/26 10:03:32;;;;;;;0.55;0.55;;;14.80;59.10;;;;;;5014674;28;20434;-65
2023/05/26 10:05:59;;;;;;;0.10;0.10;;;14.80;58.00;;;;;;5027126;28;20045;-65
2023/05/26 10:08:28;;;;;;;0.10;0.10;;;14.80;57.90;;;;;;5030381;28;20045;-65
2023/05/26 10:10:55;;;;;;;0.00;0.00;;;14.90;57.70;;;;;;5015355;28;20581;-65
2023/05/26 10:13:20;;;;;;;0.98;0.80;;;14.90;57.60;;;;;;5030306;28;20164;-65
2023/05/26 10:15:48;;;;;;;0.35;0.35;;;14.90;57.70;;;;;;5027452;28;20076;-65
2023/05/26 10:18:14;;;;;;;0.10;0.10;;;14.90;57.50;;;;;;5012358;28;20445;-65
2023/05/26 10:20:45;;;;;;;0.00;0.00;;;14.90;58.00;;;;;;5031231;28;20480;-65
2023/05/26 10:23:18;;;;;;;1.55;1.38;;;15.00;58.10;;;;;;5018499;28;20444;-65
2023/05/26 10:26:03;;;;;;;0.00;0.00;;;15.00;57.90;;;;;;5029629;28;20057;-65
2023/05/26 10:28:46;;;;;;;0.00;0.00;;;15.00;58.10;;;;;;5011349;28;20041;-65
2023/05/26 10:31:27;;;;;;;0.00;0.00;;;15.10;58.10;;;;;;5012287;28;20123;-65
2023/05/26 10:33:52;;;;;;;0.35;0.35;;;15.10;57.40;;;;;;5025943;28;20510;-65
2023/05/26 10:36:18;;;;;;;0.10;0.10;;;15.20;57.00;;;;;;5017483;28;20058;-66
2023/05/26 10:38:47;;;;;;;0.00;0.00;;;15.20;57.40;;;;;;5009465;28;20046;-66
2023/05/26 10:41:28;;;;;;;0.00;0.00;;;15.30;56.70;;;;;;5027740;28;20044;-65
2023/05/26 10:43:55;;;;;;;0.00;0.00;;;15.20;56.40;;;;;;5030435;28;20076;-65
2023/05/26 10:46:20;;;;;;;0.00;0.00;;;15.20;57.40;;;;;;5026213;28;20050;-65
2023/05/26 10:48:57;;;;;;;0.40;0.40;;;15.20;57.70;;;;;;5028992;28;20048;-65
2023/05/26 10:51:31;;;;;;;0.20;0.20;;;15.40;57.40;;;;;;5030105;28;20053;-65
2023/05/26 10:53:58;;;;;;;7.72;0.75;;;15.40;57.60;;;;;;5029564;28;20060;-65
2023/05/26 10:56:42;;;;;;;0.00;0.00;;;15.40;58.20;;;;;;5029981;28;20049;-65
2023/05/26 10:59:22;;;;;;;0.00;0.00;;;15.60;58.10;;;;;;5030399;28;20064;-65
2023/05/26 11:01:55;;;;;;;0.00;0.00;;;15.60;57.70;;;;;;5029254;28;20056;-65
2023/05/26 11:04:21;;;;;;;0.00;0.00;;;15.60;57.70;;;;;;5023225;28;20077;-65
2023/05/26 11:06:48;;;;;;;0.30;0.30;;;15.70;57.00;;;;;;5021174;28;20522;-65
2023/05/26 11:09:14;;;;;;;0.30;0.30;;;15.60;57.00;;;;;;5009688;28;20072;-65
2023/05/26 11:11:57;;;;;;;0.00;0.00;;;15.70;56.70;;;;;;5025925;28;20044;-66
2023/05/26 11:14:24;;;;;;;0.32;0.32;;;15.60;56.30;;;;;;5022034;28;20052;-65
2023/05/26 11:16:50;;;;;;;0.75;0.75;;;15.60;56.60;;;;;;5021006;28;20050;-65
2023/05/26 11:19:28;;;;;;;0.00;0.00;;;15.70;56.10;;;;;;5014983;28;20054;-65
2023/05/26 11:21:54;;;;;;;2.80;1.08;;;15.70;56.00;;;;;;5019918;28;20057;-66
2023/05/26 11:24:21;;;;;;;1.88;0.90;;;15.70;56.30;;;;;;5017375;28;20045;-65
2023/05/26 11:26:47;;;;;;;3.63;2.83;;;15.80;55.70;;;;;;5016105;28;20085;-65
2023/05/26 11:29:13;;;;;;;0.00;0.00;;;15.80;55.90;;;;;;5014604;28;20076;-65
2023/05/26 11:31:39;;;;;;;0.00;0.00;;;15.80;56.30;;;;;;5014246;28;20077;-65
2023/05/26 11:34:05;;;;;;;1.10;1.00;;;15.80;56.10;;;;;;5019312;28;20034;-65
2023/05/26 11:36:30;;;;;;;0.00;0.00;;;15.90;56.60;;;;;;5021918;28;20042;-65
2023/05/26 11:39:01;;;;;;;3.40;2.40;;;16.00;56.50;;;;;;5003819;28;20054;-65
2023/05/26 11:41:29;;;;;;;0.00;0.00;;;16.00;55.90;;;;;;5018468;28;20746;-66
2023/05/26 11:43:56;;;;;;;0.68;0.68;;;16.00;56.60;;;;;;5018646;28;20049;-65
2023/05/26 11:46:23;;;;;;;0.38;0.38;;;16.00;56.70;;;;;;5020231;28;20851;-65
2023/05/26 11:48:50;;;;;;;0.00;0.00;;;16.00;55.60;;;;;;5022625;28;20072;-65
2023/05/26 11:51:19;;;;;;;5.30;1.30;;;16.00;55.90;;;;;;5016928;28;20081;-65
2023/05/26 11:53:46;;;;;;;0.00;0.00;;;15.90;56.60;;;;;;5025622;28;20140;-65
2023/05/26 11:56:14;;;;;;;0.75;0.68;;;16.00;56.80;;;;;;5009086;28;20136;-67
2023/05/26 11:58:59;;;;;;;0.00;0.00;;;16.10;56.80;;;;;;5016327;28;20049;-65
2023/05/26 12:01:26;;;;;;;0.03;0.03;;;16.10;57.00;;;;;;5010161;28;20056;-65
2023/05/26 12:03:51;;;;;;;0.35;0.35;;;16.20;56.60;;;;;;5009726;28;20486;-64
2023/05/26 12:06:20;;;;;;;0.00;0.00;;;16.40;56.30;;;;;;5009806;28;20132;-65
2023/05/26 12:08:57;;;;;;;0.20;0.20;;;16.40;56.30;;;;;;5009296;28;20046;-65
2023/05/26 12:11:30;;;;;;;0.75;0.75;;;16.50;55.80;;;;;;5020827;28;20510;-64
2023/05/26 12:13:58;;;;;;;0.00;0.00;;;16.50;55.50;;;;;;5029036;28;20052;-64
2023/05/26 12:16:24;;;;;;;0.65;0.65;;;16.40;55.70;;;;;;5008063;28;20132;-64
2023/05/26 12:18:51;;;;;;;0.30;0.30;;;16.50;55.70;;;;;;5027613;28;20179;-64
2023/05/26 12:21:17;;;;;;;2.30;1.35;;;16.50;55.60;;;;;;5027600;28;20060;-64
2023/05/26 12:23:42;;;;;;;0.52;0.52;;;16.60;55.80;;;;;;5028040;28;20053;-64
2023/05/26 12:26:22;;;;;;;0.00;0.00;;;16.50;56.00;;;;;;5028004;28;20548;-64
2023/05/26 12:29:11;;;;;;;0.45;0.45;;;16.50;55.30;;;;;;5027349;28;20411;-63
2023/05/26 12:31:48;;;;;;;1.67;0.17;;;16.50;55.50;;;;;;5027404;28;20656;-63
2023/05/26 12:34:18;;;;;;;0.00;0.00;;;16.40;55.50;;;;;;5027889;28;20103;-63
2023/05/26 12:36:44;;;;;;;0.30;0.30;;;16.40;55.80;;;;;;5009780;28;20052;-63
2023/05/26 12:39:10;;;;;;;0.00;0.00;;;16.40;55.00;;;;;;5025947;28;20053;-64
2023/05/26 12:41:36;;;;;;;0.00;0.00;;;16.40;55.30;;;;;;5027635;28;20046;-64
2023/05/26 12:44:02;;;;;;;5.07;0.90;;;16.30;55.10;;;;;;5026981;28;20053;-63
2023/05/26 12:46:29;;;;;;;10.23;0.65;;;16.20;55.50;;;;;;5027984;28;20046;-64
2023/05/26 12:48:55;;;;;;;0.95;0.95;;;16.30;55.20;;;;;;5027836;28;20057;-64
2023/05/26 12:51:21;;;;;;;0.47;0.47;;;16.40;55.50;;;;;;5008920;28;20746;-64